Time;durP1;ratioP1;P1;durP2;ratioP2;P2;SDS_P1;SDS_P2;PMS_P1;PMS_P2;Temp;Humidity;BMP_temperature;BMP_pressure;BME280_temperature;BME280_humidity;BME280_pressure;Samples;Min_cycle;Max_cycle;Signal;HPM_P1;HPM_P2
2022/01/19 00:00:39;;;;;;;7.90;4.00;;;;;;;-2.22;57.47;96184.78;5015067;28;20230;-67
2022/01/19 00:03:04;;;;;;;7.63;4.00;;;;;;;-2.16;56.84;96189.78;5014581;28;20215;-63
2022/01/19 00:05:30;;;;;;;7.33;4.47;;;;;;;-2.19;56.91;96189.00;5016250;28;20214;-62
2022/01/19 00:07:55;;;;;;;6.87;3.70;;;;;;;-2.17;57.14;96185.50;5012514;28;20249;-66
2022/01/19 00:10:27;;;;;;;8.13;4.20;;;;;;;-2.22;57.03;96183.06;5016521;28;20233;-63
2022/01/19 00:12:57;;;;;;;8.70;3.80;;;;;;;-2.08;57.11;96194.69;5019085;28;20218;-63
2022/01/19 00:15:23;;;;;;;9.93;4.33;;;;;;;-2.16;56.62;96199.25;5014888;28;20222;-65
2022/01/19 00:17:54;;;;;;;7.17;3.80;;;;;;;-2.07;56.62;96202.38;5014529;28;20253;-63
2022/01/19 00:20:20;;;;;;;7.50;3.80;;;;;;;-2.20;56.25;96202.78;5014582;28;20250;-63
2022/01/19 00:22:46;;;;;;;7.57;3.57;;;;;;;-2.24;57.16;96204.63;5014841;28;20230;-64
2022/01/19 00:25:12;;;;;;;9.13;4.07;;;;;;;-2.19;56.77;96213.06;5014703;28;20262;-64
2022/01/19 00:27:38;;;;;;;6.10;3.47;;;;;;;-2.16;56.71;96206.97;5015324;28;20210;-63
2022/01/19 00:30:05;;;;;;;10.33;4.10;;;;;;;-2.11;56.41;96211.09;5016946;28;20285;-66
2022/01/19 00:32:31;;;;;;;7.30;3.63;;;;;;;-2.09;56.41;96211.88;5020795;28;20226;-63
2022/01/19 00:34:57;;;;;;;7.43;3.73;;;;;;;-2.16;56.52;96215.53;5016697;28;20218;-64
2022/01/19 00:37:23;;;;;;;8.10;4.00;;;;;;;-2.12;56.42;96221.44;5006960;28;20227;-63
2022/01/19 00:39:48;;;;;;;7.93;3.63;;;;;;;-2.22;56.81;96226.88;5001728;28;20223;-64
2022/01/19 00:42:14;;;;;;;8.50;4.00;;;;;;;-2.23;56.96;96220.03;5016134;28;20540;-66
2022/01/19 00:44:39;;;;;;;5.73;3.57;;;;;;;-2.11;56.67;96228.28;5012638;28;20238;-67
2022/01/19 00:47:05;;;;;;;10.83;4.07;;;;;;;-2.18;56.75;96237.09;5016875;28;20280;-63
2022/01/19 00:49:31;;;;;;;10.23;4.30;;;;;;;-2.18;56.85;96221.63;5015403;28;20266;-63
2022/01/19 00:51:56;;;;;;;8.27;3.90;;;;;;;-2.20;56.63;96220.81;5014046;28;20249;-63
2022/01/19 00:54:22;;;;;;;10.27;4.10;;;;;;;-2.17;56.97;96242.19;5017789;28;20207;-65
2022/01/19 00:56:47;;;;;;;9.53;4.20;;;;;;;-2.13;56.63;96250.69;5017689;28;20236;-64
2022/01/19 00:59:13;;;;;;;7.93;4.27;;;;;;;-2.17;56.81;96260.22;5016783;28;20230;-64
2022/01/19 01:01:38;;;;;;;8.03;3.87;;;;;;;-2.19;57.04;96243.97;5015346;28;20241;-66
2022/01/19 01:04:04;;;;;;;7.30;4.07;;;;;;;-2.27;57.20;96243.38;5011584;28;20239;-66
2022/01/19 01:06:30;;;;;;;7.87;3.70;;;;;;;-2.26;57.22;96253.59;4995873;28;20223;-64
2022/01/19 01:08:56;;;;;;;7.87;4.17;;;;;;;-2.17;56.80;96256.81;5015615;28;20215;-63
2022/01/19 01:11:28;;;;;;;8.77;4.30;;;;;;;-2.20;57.39;96262.06;5015912;28;20218;-64
2022/01/19 01:16:37;;;;;;;9.80;3.93;;;;;;;-2.24;57.06;96264.72;5023233;28;20329;-66
2022/01/19 01:19:07;;;;;;;9.10;4.17;;;;;;;-2.28;57.27;96252.81;5021384;28;20248;-63
2022/01/19 01:21:33;;;;;;;6.53;4.20;;;;;;;-2.23;57.75;96242.38;5019079;28;20221;-64
2022/01/19 01:23:59;;;;;;;8.20;4.73;;;;;;;-2.38;57.78;96247.94;5019885;28;20285;-65
2022/01/19 01:26:25;;;;;;;9.20;4.37;;;;;;;-2.40;57.68;96242.88;5019453;28;20218;-63
2022/01/19 01:28:50;;;;;;;9.20;3.90;;;;;;;-2.32;57.83;96251.22;5020979;28;20218;-64
2022/01/19 01:31:15;;;;;;;7.23;4.10;;;;;;;-2.38;58.14;96230.75;5018651;28;20215;-66
2022/01/19 01:33:42;;;;;;;8.60;4.13;;;;;;;-2.33;57.74;96239.19;5019494;28;20202;-63
2022/01/19 01:36:08;;;;;;;5.10;3.97;;;;;;;-2.34;57.79;96224.66;5021773;28;20297;-65
2022/01/19 01:38:34;;;;;;;10.73;4.67;;;;;;;-2.39;57.63;96231.66;5013536;28;20233;-64
2022/01/19 01:41:00;;;;;;;7.53;3.77;;;;;;;-2.39;57.72;96216.22;5017630;28;20219;-63
2022/01/19 01:43:26;;;;;;;8.07;4.00;;;;;;;-2.37;57.81;96234.22;5019330;28;20268;-65
2022/01/19 01:45:57;;;;;;;7.43;3.93;;;;;;;-2.39;58.24;96235.97;5017286;28;20214;-64
2022/01/19 01:48:25;;;;;;;5.90;3.97;;;;;;;-2.32;57.57;96228.03;5020504;28;20219;-63
2022/01/19 01:53:36;;;;;;;7.33;4.23;;;;;;;-2.37;57.88;96218.75;5017962;28;20241;-66
2022/01/19 01:56:07;;;;;;;6.40;3.90;;;;;;;-2.43;58.01;96217.19;5015875;28;20231;-64
2022/01/19 01:58:35;;;;;;;8.43;4.47;;;;;;;-2.44;58.42;96210.34;5020524;28;20237;-65
2022/01/19 02:01:02;;;;;;;8.20;4.13;;;;;;;-2.41;58.02;96210.25;5033283;28;20292;-63
2022/01/19 02:03:28;;;;;;;7.33;4.10;;;;;;;-2.30;57.81;96212.50;5015834;28;20207;-63
2022/01/19 02:08:43;;;;;;;8.50;4.40;;;;;;;-2.48;57.92;96199.28;5017197;28;20254;-64
2022/01/19 02:16:34;;;;;;;9.40;5.17;;;;;;;-2.53;57.81;96170.25;5018414;28;20245;-68
2022/01/19 02:24:22;;;;;;;8.90;3.77;;;;;;;-2.47;57.50;96175.22;5021550;28;20246;-63
2022/01/19 02:42:32;;;;;;;6.43;3.60;;;;;;;-2.58;57.74;96148.09;5017779;28;20245;-63
2022/01/19 02:49:54;;;;;;;7.30;3.77;;;;;;;-2.62;57.37;96170.53;5021796;28;20237;-64
2022/01/19 02:52:21;;;;;;;6.17;3.70;;;;;;;-2.57;57.46;96165.22;5016228;28;20239;-65
2022/01/19 02:54:48;;;;;;;8.57;3.20;;;;;;;-2.58;57.25;96161.81;5012792;28;20298;-62
2022/01/19 02:57:14;;;;;;;7.63;3.70;;;;;;;-2.65;56.92;96165.44;5021512;28;20206;-64
2022/01/19 03:10:12;;;;;;;7.37;3.93;;;;;;;-2.59;56.86;96173.00;5016526;28;20229;-63
2022/01/19 03:12:37;;;;;;;8.70;4.00;;;;;;;-2.73;57.30;96162.25;5003209;28;20190;-67
2022/01/19 03:15:03;;;;;;;7.80;3.63;;;;;;;-2.68;57.66;96163.78;5000175;28;20214;-65
2022/01/19 03:17:29;;;;;;;5.43;3.60;;;;;;;-2.70;57.08;96149.28;5001911;28;20234;-63
2022/01/19 03:19:54;;;;;;;11.23;3.93;;;;;;;-2.67;57.59;96149.22;5003499;28;20242;-63
2022/01/19 03:22:26;;;;;;;7.20;4.70;;;;;;;-2.70;57.34;96150.16;4997558;28;20316;-65
2022/01/19 03:24:52;;;;;;;7.23;3.97;;;;;;;-2.71;57.16;96161.31;5019515;28;20226;-65
2022/01/19 03:27:18;;;;;;;8.37;3.90;;;;;;;-2.63;57.26;96179.13;4998368;28;20293;-63
2022/01/19 03:29:44;;;;;;;6.63;4.10;;;;;;;-2.65;56.87;96175.75;4996159;28;20231;-63
2022/01/19 03:32:10;;;;;;;5.40;3.50;;;;;;;-2.61;56.73;96171.38;5015436;28;20238;-65
2022/01/19 03:34:36;;;;;;;5.87;3.63;;;;;;;-2.64;56.86;96166.31;4998268;28;20218;-64
2022/01/19 03:37:03;;;;;;;5.97;3.87;;;;;;;-2.64;56.81;96169.72;4996954;28;20230;-63
2022/01/19 03:39:30;;;;;;;7.00;3.47;;;;;;;-2.64;57.00;96174.03;5018703;28;20214;-64
2022/01/19 03:41:55;;;;;;;7.37;3.80;;;;;;;-2.66;56.90;96171.47;5012277;28;20298;-65
2022/01/19 03:44:21;;;;;;;6.17;3.30;;;;;;;-2.61;56.58;96177.34;5012499;28;20286;-65
2022/01/19 03:46:56;;;;;;;4.13;3.10;;;;;;;-2.66;56.85;96156.88;5009794;28;20277;-64
2022/01/19 03:49:24;;;;;;;7.20;4.40;;;;;;;-2.62;57.04;96177.38;5017449;28;20221;-64
2022/01/19 03:51:58;;;;;;;4.83;3.33;;;;;;;-2.63;56.88;96161.09;5012377;28;20219;-65
2022/01/19 03:54:27;;;;;;;8.63;4.13;;;;;;;-2.61;56.44;96172.19;5017933;28;20215;-65
2022/01/19 03:56:53;;;;;;;6.07;3.77;;;;;;;-2.63;57.19;96173.13;5020401;28;20222;-64
2022/01/19 03:59:19;;;;;;;6.07;3.37;;;;;;;-2.63;56.70;96178.28;5016192;28;20237;-65
2022/01/19 04:01:45;;;;;;;5.83;4.10;;;;;;;-2.56;56.24;96174.66;5007386;28;20223;-65
2022/01/19 04:04:34;;;;;;;6.57;3.80;;;;;;;-2.56;56.58;96177.22;5005766;28;20223;-67
2022/01/19 04:09:33;;;;;;;5.70;3.73;;;;;;;-2.54;56.18;96183.16;5005009;28;20274;-66
2022/01/19 04:11:59;;;;;;;5.60;3.67;;;;;;;-2.54;56.25;96190.88;5002015;28;20231;-63
2022/01/19 04:14:25;;;;;;;6.63;3.63;;;;;;;-2.52;56.16;96194.25;5015870;28;20219;-65
2022/01/19 04:17:00;;;;;;;6.27;3.73;;;;;;;-2.58;56.05;96197.84;5016228;28;20229;-63
2022/01/19 04:21:53;;;;;;;7.33;3.63;;;;;;;-2.59;55.98;96196.19;5015498;28;20246;-65
2022/01/19 04:24:20;;;;;;;6.03;3.67;;;;;;;-2.55;56.36;96205.50;5013634;28;20198;-65
2022/01/19 04:26:50;;;;;;;7.57;4.07;;;;;;;-2.56;55.87;96196.09;5018946;28;20290;-65
2022/01/19 04:29:15;;;;;;;9.17;3.87;;;;;;;-2.56;55.88;96203.81;5015351;28;20226;-63
2022/01/19 04:31:41;;;;;;;9.17;4.27;;;;;;;-2.56;55.84;96197.84;5016645;28;20264;-66
2022/01/19 04:34:07;;;;;;;4.27;3.50;;;;;;;-2.58;55.88;96210.72;5013479;28;20224;-64
2022/01/19 04:36:57;;;;;;;7.47;4.00;;;;;;;-2.61;55.91;96205.69;5000734;28;20219;-64
2022/01/19 05:06:24;;;;;;;6.87;3.90;;;;;;;-2.56;55.76;96234.72;4994255;28;20271;-63
2022/01/19 05:14:00;;;;;;;6.27;3.50;;;;;;;-2.52;55.73;96244.03;4975287;28;20243;-66
2022/01/19 05:16:26;;;;;;;6.70;4.07;;;;;;;-2.51;55.50;96248.31;4975154;28;20228;-64
2022/01/19 05:18:51;;;;;;;6.40;4.10;;;;;;;-2.51;55.34;96247.47;4976947;28;20216;-64
2022/01/19 05:21:18;;;;;;;8.50;4.30;;;;;;;-2.44;55.54;96254.13;4976673;28;20239;-63
2022/01/19 05:23:43;;;;;;;5.40;3.97;;;;;;;-2.49;55.16;96235.38;4979943;28;20295;-65
2022/01/19 05:26:09;;;;;;;7.20;4.00;;;;;;;-2.55;55.35;96230.41;4984332;28;20238;-63
2022/01/19 05:28:36;;;;;;;10.00;4.03;;;;;;;-2.50;56.08;96249.16;4990885;28;20231;-64
2022/01/19 05:31:01;;;;;;;9.80;3.77;;;;;;;-2.53;55.82;96260.38;4964214;28;20226;-62
2022/01/19 05:33:27;;;;;;;9.13;4.67;;;;;;;-2.50;55.90;96252.56;4996268;28;20295;-66
2022/01/19 05:35:52;;;;;;;8.93;4.23;;;;;;;-2.51;55.79;96263.75;4983810;28;20243;-62
2022/01/19 05:38:18;;;;;;;7.53;4.47;;;;;;;-2.54;56.09;96263.84;4979336;28;20246;-64
2022/01/19 05:40:43;;;;;;;8.37;4.17;;;;;;;-2.57;56.15;96268.22;5007650;28;20227;-64
2022/01/19 05:43:10;;;;;;;8.03;4.33;;;;;;;-2.51;56.07;96268.09;5018325;28;20243;-65
2022/01/19 05:45:36;;;;;;;8.53;4.50;;;;;;;-2.53;56.47;96269.84;5014606;28;20202;-65
2022/01/19 05:48:01;;;;;;;8.07;4.60;;;;;;;-2.49;57.16;96276.59;5023113;28;20262;-64
2022/01/19 05:50:27;;;;;;;6.80;4.37;;;;;;;-2.56;57.30;96281.06;5018426;28;20241;-65
2022/01/19 05:52:53;;;;;;;9.17;5.10;;;;;;;-2.49;57.29;96297.19;5012632;28;21158;-64
2022/01/19 05:55:19;;;;;;;11.43;4.50;;;;;;;-2.51;57.35;96294.66;5021364;28;20293;-65
2022/01/19 05:57:44;;;;;;;6.00;4.47;;;;;;;-2.44;56.96;96297.91;5020931;28;20253;-65
2022/01/19 06:00:10;;;;;;;9.27;4.93;;;;;;;-2.50;57.36;96292.94;5014256;28;20222;-64
2022/01/19 06:02:36;;;;;;;8.17;4.70;;;;;;;-2.40;57.11;96301.28;5018954;28;20261;-65
2022/01/19 06:05:03;;;;;;;8.30;5.03;;;;;;;-2.56;57.75;96303.41;5017111;28;20222;-64
2022/01/19 06:07:30;;;;;;;8.60;5.37;;;;;;;-2.50;57.92;96301.50;5014861;28;20237;-62
2022/01/19 06:10:05;;;;;;;9.67;5.07;;;;;;;-2.47;57.83;96304.00;5021907;28;20234;-64
2022/01/19 06:12:31;;;;;;;9.07;5.40;;;;;;;-2.45;58.01;96297.06;5017283;28;20271;-65
2022/01/19 06:14:56;;;;;;;7.20;4.67;;;;;;;-2.50;58.05;96293.78;4995687;28;20218;-65
2022/01/19 06:17:22;;;;;;;6.90;4.80;;;;;;;-2.49;58.45;96295.44;4997399;28;20235;-64
2022/01/19 06:19:48;;;;;;;10.23;4.93;;;;;;;-2.52;58.72;96299.84;5011170;28;20226;-64
2022/01/19 06:22:14;;;;;;;8.23;5.30;;;;;;;-2.44;58.30;96306.47;5020708;28;20302;-65
2022/01/19 06:24:40;;;;;;;9.37;5.77;;;;;;;-2.42;58.65;96314.19;5017008;28;20207;-65
2022/01/19 06:27:06;;;;;;;9.20;5.43;;;;;;;-2.38;58.73;96313.19;5014408;28;20207;-65
2022/01/19 06:29:32;;;;;;;8.77;5.27;;;;;;;-2.36;58.70;96320.88;5021643;28;20226;-66
2022/01/19 06:31:57;;;;;;;8.37;5.40;;;;;;;-2.34;58.79;96303.66;5017177;28;20905;-64
2022/01/19 06:34:23;;;;;;;11.43;5.53;;;;;;;-2.28;58.46;96317.22;5016116;28;20227;-63
2022/01/19 06:36:51;;;;;;;10.20;5.10;;;;;;;-2.28;58.60;96314.63;5020478;28;20226;-63
2022/01/19 06:39:17;;;;;;;9.67;5.43;;;;;;;-2.28;58.47;96313.78;5020193;28;20218;-62
2022/01/19 06:41:43;;;;;;;9.77;5.70;;;;;;;-2.18;58.15;96314.41;5016169;28;20222;-63
2022/01/19 06:44:09;;;;;;;9.10;5.83;;;;;;;-2.17;58.24;96314.34;5032032;28;20300;-64
2022/01/19 06:46:34;;;;;;;9.30;5.47;;;;;;;-2.11;58.24;96331.34;5017172;28;20233;-63
2022/01/19 06:49:00;;;;;;;10.57;5.30;;;;;;;-2.10;58.20;96326.16;5012907;28;20250;-64
2022/01/19 06:51:25;;;;;;;11.70;5.77;;;;;;;-2.10;58.02;96325.34;5020337;28;20207;-64
2022/01/19 06:53:52;;;;;;;12.03;5.87;;;;;;;-2.02;58.02;96316.47;5016256;28;20245;-64
2022/01/19 06:56:18;;;;;;;10.83;5.70;;;;;;;-2.01;58.10;96319.91;5018847;28;20277;-63
2022/01/19 06:58:43;;;;;;;7.63;5.87;;;;;;;-1.94;58.33;96315.44;5016418;28;20214;-63
2022/01/19 07:01:09;;;;;;;9.33;5.73;;;;;;;-1.83;57.78;96319.38;5015162;28;20303;-64
2022/01/19 07:03:35;;;;;;;10.97;5.50;;;;;;;-1.81;57.83;96317.59;5017957;28;20238;-64
2022/01/19 07:06:01;;;;;;;10.70;6.40;;;;;;;-1.74;57.87;96310.50;5016402;28;20214;-62
2022/01/19 07:08:27;;;;;;;10.63;6.23;;;;;;;-1.84;58.32;96311.69;5017272;28;20250;-64
2022/01/19 07:10:53;;;;;;;11.87;6.13;;;;;;;-1.66;58.13;96302.56;5015217;28;20247;-62
2022/01/19 07:13:19;;;;;;;14.30;6.23;;;;;;;-1.60;58.08;96292.91;5016421;28;20280;-64
2022/01/19 07:15:45;;;;;;;11.30;6.20;;;;;;;-1.69;58.45;96288.00;5017516;28;20245;-64
2022/01/19 07:18:11;;;;;;;10.07;5.73;;;;;;;-1.60;57.87;96276.59;5013801;28;20210;-62
2022/01/19 07:20:36;;;;;;;7.90;5.47;;;;;;;-1.57;58.17;96286.81;5015626;28;20256;-64
2022/01/19 07:23:02;;;;;;;9.27;5.93;;;;;;;-1.61;58.18;96283.47;5016389;28;20238;-63
2022/01/19 07:25:29;;;;;;;13.60;6.40;;;;;;;-1.64;58.00;96278.41;5012300;28;20238;-64
2022/01/19 07:27:55;;;;;;;10.93;6.37;;;;;;;-1.40;57.38;96278.53;5001050;28;20257;-62
2022/01/19 07:30:21;;;;;;;11.87;6.87;;;;;;;-1.34;57.31;96286.94;5015350;28;20302;-62
2022/01/19 07:32:49;;;;;;;9.97;5.70;;;;;;;-1.34;57.16;96281.78;5019784;28;20238;-64
2022/01/19 07:35:16;;;;;;;9.47;6.17;;;;;;;-1.21;56.80;96287.38;5014738;28;20226;-65
2022/01/19 07:37:41;;;;;;;10.97;6.27;;;;;;;-1.19;56.37;96287.34;5018969;28;20222;-64
2022/01/19 07:40:07;;;;;;;13.13;6.10;;;;;;;-1.23;56.27;96285.72;5013717;28;20281;-63
2022/01/19 07:42:34;;;;;;;11.73;6.17;;;;;;;-1.21;56.37;96294.28;5016243;28;20245;-62
2022/01/19 07:44:59;;;;;;;7.70;6.07;;;;;;;-1.08;55.62;96293.00;5019055;28;20214;-62
2022/01/19 07:47:27;;;;;;;8.67;5.67;;;;;;;-1.18;55.95;96295.00;5013865;28;20277;-63
2022/01/19 07:49:53;;;;;;;12.93;7.10;;;;;;;-1.01;55.54;96294.50;5002402;28;20307;-63
2022/01/19 07:52:19;;;;;;;9.63;6.20;;;;;;;-1.03;55.32;96292.84;4994483;28;20223;-65
2022/01/19 07:54:44;;;;;;;10.87;5.30;;;;;;;-0.97;55.29;96301.22;4992542;28;20219;-63
2022/01/19 07:57:10;;;;;;;9.60;5.77;;;;;;;-0.91;54.85;96306.22;4994994;28;20223;-64
2022/01/19 07:59:35;;;;;;;12.47;6.23;;;;;;;-0.92;55.21;96295.91;4995092;28;20283;-65
2022/01/19 08:02:01;;;;;;;10.20;6.07;;;;;;;-0.86;54.97;96300.03;5014695;28;20214;-65
2022/01/19 08:04:27;;;;;;;10.17;5.77;;;;;;;-0.89;55.23;96285.47;5016682;28;20242;-62
2022/01/19 08:06:54;;;;;;;10.87;5.97;;;;;;;-0.66;54.61;96300.22;5017305;28;20354;-61
2022/01/19 08:09:25;;;;;;;10.63;6.20;;;;;;;-0.70;54.66;96296.88;5016121;28;20209;-62
2022/01/19 08:11:50;;;;;;;11.17;6.13;;;;;;;-0.71;54.67;96291.78;5012655;28;20229;-63
2022/01/19 08:14:16;;;;;;;12.30;7.00;;;;;;;-0.62;54.49;96281.09;5014629;28;20242;-62
2022/01/19 08:16:42;;;;;;;10.43;5.73;;;;;;;-0.58;53.97;96287.88;5014051;28;20224;-63
2022/01/19 08:19:08;;;;;;;10.77;5.80;;;;;;;-0.38;54.13;96291.50;5010514;28;20250;-62
2022/01/19 08:21:33;;;;;;;10.53;5.90;;;;;;;-0.02;53.21;96292.75;5020191;28;20242;-63
2022/01/19 08:23:59;;;;;;;9.67;6.20;;;;;;;-0.07;52.50;96297.25;5013836;28;20249;-63
2022/01/19 08:26:24;;;;;;;10.83;5.77;;;;;;;-0.21;53.13;96296.91;5019557;28;20301;-64
2022/01/19 08:28:50;;;;;;;8.33;5.67;;;;;;;-0.29;52.48;96286.00;5017626;28;20227;-63
2022/01/19 08:31:15;;;;;;;10.03;5.47;;;;;;;-0.27;52.85;96292.81;5016368;28;20298;-64
2022/01/19 08:33:41;;;;;;;9.47;6.07;;;;;;;-0.15;52.54;96288.94;5014647;28;20299;-63
2022/01/19 08:36:06;;;;;;;8.57;5.63;;;;;;;-0.21;52.34;96299.50;5013865;28;20214;-62
2022/01/19 08:38:32;;;;;;;12.27;5.37;;;;;;;-0.18;51.84;96296.81;5013927;28;20264;-64
2022/01/19 08:40:58;;;;;;;10.67;5.40;;;;;;;-0.23;51.83;96278.88;5016174;28;20226;-63
2022/01/19 08:43:23;;;;;;;10.93;5.60;;;;;;;0.01;51.40;96273.69;5016005;28;20237;-62
2022/01/19 08:45:49;;;;;;;9.70;6.07;;;;;;;0.34;50.85;96273.31;5016093;28;20215;-63
2022/01/19 08:48:18;;;;;;;10.77;5.80;;;;;;;0.59;49.97;96260.28;5017525;28;20220;-64
2022/01/19 08:50:44;;;;;;;14.37;6.20;;;;;;;0.86;48.90;96266.09;5010439;28;20290;-62
2022/01/19 08:53:10;;;;;;;11.23;6.80;;;;;;;1.08;48.51;96271.25;5008397;28;20226;-62
2022/01/19 08:55:36;;;;;;;13.80;6.63;;;;;;;1.14;48.17;96262.38;5008744;28;20247;-63
2022/01/19 08:58:02;;;;;;;11.10;4.67;;;;;;;1.29;47.28;96264.31;5015120;28;20277;-64
2022/01/19 09:00:29;;;;;;;10.07;4.87;;;;;;;1.34;46.71;96270.16;5013118;28;20249;-62
2022/01/19 09:02:55;;;;;;;14.93;7.70;;;;;;;1.39;46.76;96268.22;5015184;28;20226;-64
2022/01/19 09:05:20;;;;;;;8.63;4.97;;;;;;;1.44;46.65;96265.41;5015376;28;20219;-65
2022/01/19 09:07:46;;;;;;;11.73;4.97;;;;;;;1.27;46.98;96266.97;5014581;28;20242;-65
2022/01/19 09:10:14;;;;;;;8.33;4.40;;;;;;;1.26;45.88;96269.66;5012613;28;20231;-63
2022/01/19 09:12:39;;;;;;;9.80;5.00;;;;;;;1.00;46.77;96266.38;5012368;28;20217;-62
2022/01/19 09:15:07;;;;;;;9.97;5.13;;;;;;;0.95;46.51;96249.34;5013209;28;20242;-63
2022/01/19 09:17:33;;;;;;;8.93;4.50;;;;;;;0.60;47.26;96249.03;5010046;28;20222;-64
2022/01/19 09:19:59;;;;;;;9.00;5.43;;;;;;;0.74;47.27;96246.72;5010571;28;20228;-64
2022/01/19 09:22:24;;;;;;;10.80;4.90;;;;;;;0.86;47.20;96241.03;5003615;28;20227;-64
2022/01/19 09:24:50;;;;;;;8.87;4.90;;;;;;;0.85;47.08;96241.09;5011363;28;20226;-65
2022/01/19 09:27:18;;;;;;;9.37;4.50;;;;;;;0.94;46.91;96232.97;5013650;28;20203;-64
2022/01/19 09:29:45;;;;;;;8.17;5.00;;;;;;;1.03;46.60;96235.16;5014422;28;20218;-66
2022/01/19 09:32:12;;;;;;;9.53;5.20;;;;;;;1.29;46.12;96226.28;5012890;28;20218;-65
2022/01/19 09:34:41;;;;;;;11.70;5.83;;;;;;;1.35;46.48;96229.53;5011907;28;20243;-63
2022/01/19 09:37:06;;;;;;;13.30;5.40;;;;;;;1.42;45.96;96228.38;5025171;28;20221;-65
2022/01/19 09:39:32;;;;;;;8.87;5.17;;;;;;;1.55;45.70;96229.50;5018100;28;20207;-65
2022/01/19 09:41:57;;;;;;;11.60;5.20;;;;;;;1.62;45.53;96230.91;5020406;28;20233;-63
2022/01/19 09:44:25;;;;;;;7.17;4.70;;;;;;;1.64;45.18;96208.38;5017525;28;20306;-63
2022/01/19 09:46:52;;;;;;;9.67;5.50;;;;;;;1.61;45.38;96212.84;5017753;28;20283;-64
2022/01/19 09:49:19;;;;;;;9.30;5.23;;;;;;;1.43;45.92;96209.31;5013374;28;20232;-61
2022/01/19 09:51:47;;;;;;;10.97;5.60;;;;;;;1.45;45.89;96202.31;5000508;28;20203;-61
2022/01/19 09:54:14;;;;;;;9.13;5.17;;;;;;;1.45;45.66;96210.94;4999651;28;20199;-65
2022/01/19 09:56:41;;;;;;;10.97;5.70;;;;;;;1.69;45.47;96211.59;5000216;28;20227;-64
2022/01/19 09:59:07;;;;;;;8.60;4.60;;;;;;;1.63;45.25;96211.88;5013294;28;20214;-65
2022/01/19 10:01:33;;;;;;;8.17;4.50;;;;;;;1.62;45.22;96202.41;5011511;28;20216;-67
2022/01/19 10:04:16;;;;;;;7.17;4.87;;;;;;;1.71;44.95;96201.13;5015684;28;20242;-62
2022/01/19 10:06:41;;;;;;;11.30;5.13;;;;;;;1.90;44.38;96198.59;4996981;28;20207;-64
2022/01/19 10:09:07;;;;;;;10.67;5.27;;;;;;;1.93;44.28;96194.09;5020176;28;20214;-63
2022/01/19 10:17:03;;;;;;;8.03;5.70;;;;;;;1.99;44.26;96182.59;5016390;28;20277;-63
2022/01/19 10:19:46;;;;;;;9.03;5.43;;;;;;;2.17;43.72;96186.09;5015426;28;20249;-63
2022/01/19 10:22:24;;;;;;;11.30;5.50;;;;;;;2.28;43.29;96186.41;5020521;28;20235;-65
2022/01/19 10:25:08;;;;;;;10.17;5.37;;;;;;;2.33;43.54;96179.25;5022926;28;20229;-63
2022/01/19 10:27:45;;;;;;;9.63;5.83;;;;;;;2.49;42.99;96187.16;5016615;28;20226;-64
2022/01/19 10:30:23;;;;;;;8.67;4.87;;;;;;;2.48;42.40;96185.44;5019691;28;20214;-62
2022/01/19 10:32:59;;;;;;;9.63;5.60;;;;;;;2.46;43.23;96176.03;5012913;28;20219;-63
2022/01/19 10:35:36;;;;;;;8.17;5.67;;;;;;;2.73;42.67;96176.47;5033230;28;20215;-67
2022/01/19 10:38:15;;;;;;;15.33;5.77;;;;;;;2.85;41.90;96175.84;5015347;28;20281;-67
2022/01/19 10:41:04;;;;;;;10.20;6.70;;;;;;;2.95;42.28;96174.47;5011561;28;20222;-64
2022/01/19 10:43:29;;;;;;;10.47;5.33;;;;;;;3.05;41.11;96172.28;5014146;28;20249;-63
2022/01/19 10:45:57;;;;;;;8.50;5.07;;;;;;;3.11;41.34;96158.13;5016433;28;20239;-64
2022/01/19 10:48:34;;;;;;;8.33;5.07;;;;;;;3.18;41.65;96154.28;5017980;28;20203;-63
2022/01/19 10:51:16;;;;;;;8.93;4.90;;;;;;;3.49;40.77;96143.13;5016779;28;20282;-63
2022/01/19 10:53:47;;;;;;;11.20;5.77;;;;;;;3.14;41.67;96143.22;4996759;28;20215;-63
2022/01/19 10:56:27;;;;;;;9.10;5.37;;;;;;;3.28;41.19;96124.28;4996070;28;20286;-64
2022/01/19 10:58:59;;;;;;;9.67;5.80;;;;;;;3.41;41.16;96127.09;4994724;28;20223;-62
2022/01/19 11:01:32;;;;;;;11.50;5.50;;;;;;;3.52;40.75;96110.00;4999854;28;20223;-62
2022/01/19 11:04:20;;;;;;;10.83;5.93;;;;;;;3.84;40.51;96104.81;4998924;28;20223;-63
2022/01/19 11:06:52;;;;;;;8.13;5.33;;;;;;;3.93;39.75;96093.91;4999716;28;20277;-60
2022/01/19 11:09:23;;;;;;;9.60;5.30;;;;;;;4.07;39.49;96098.34;5016121;28;20207;-60
2022/01/19 11:11:48;;;;;;;8.47;5.30;;;;;;;4.05;39.62;96081.97;5019244;28;20268;-60
2022/01/19 11:14:16;;;;;;;8.23;5.33;;;;;;;4.27;39.40;96094.59;5019681;28;20234;-61
2022/01/19 11:16:42;;;;;;;8.97;5.57;;;;;;;4.36;38.61;96082.84;5017038;28;20246;-61
2022/01/19 11:19:09;;;;;;;11.17;6.23;;;;;;;4.59;38.62;96086.72;5014473;28;20222;-62
2022/01/19 11:21:58;;;;;;;10.97;6.00;;;;;;;4.60;38.52;96075.41;5011665;28;20310;-61
2022/01/19 11:24:26;;;;;;;8.20;5.47;;;;;;;4.68;38.42;96081.00;5019462;28;20241;-62
2022/01/19 11:26:55;;;;;;;10.23;6.67;;;;;;;4.51;38.69;96073.31;5016274;28;20257;-62
2022/01/19 11:29:23;;;;;;;13.77;6.03;;;;;;;4.59;38.53;96078.91;5014283;28;20250;-63
2022/01/19 11:31:51;;;;;;;8.90;5.87;;;;;;;4.80;38.67;96075.03;5009847;28;20227;-63
2022/01/19 11:34:46;;;;;;;12.50;5.37;;;;;;;4.96;38.11;96076.75;5017505;28;20223;-62
2022/01/19 11:37:13;;;;;;;9.07;5.60;;;;;;;5.12;37.62;96074.91;5019963;28;20218;-64
2022/01/19 11:39:59;;;;;;;11.43;6.13;;;;;;;5.27;37.60;96081.78;5018019;28;20209;-66
2022/01/19 11:42:24;;;;;;;10.10;6.53;;;;;;;5.47;36.55;96070.13;5010975;28;20215;-63
2022/01/19 11:44:51;;;;;;;10.03;5.97;;;;;;;5.62;36.79;96070.13;5010155;28;20268;-64
2022/01/19 11:47:25;;;;;;;8.10;5.70;;;;;;;5.56;36.20;96065.28;5015539;28;20218;-61
2022/01/19 11:50:03;;;;;;;12.03;6.13;;;;;;;5.33;36.52;96066.72;5018089;28;20260;-61
2022/01/19 11:52:34;;;;;;;11.90;5.80;;;;;;;5.49;36.61;96064.84;5011605;28;20218;-64
2022/01/19 11:55:16;;;;;;;11.33;5.90;;;;;;;5.75;36.11;96058.81;5016580;28;20290;-61
2022/01/19 11:57:43;;;;;;;9.97;6.23;;;;;;;5.84;35.60;96053.94;5014792;28;20230;-62
2022/01/19 12:00:30;;;;;;;7.20;5.40;;;;;;;5.82;35.66;96046.22;5016050;28;20274;-63
2022/01/19 12:02:58;;;;;;;8.10;5.63;;;;;;;6.03;35.46;96046.66;5016398;28;20227;-62
2022/01/19 12:05:44;;;;;;;7.33;5.60;;;;;;;6.05;35.02;96052.63;5015926;28;20299;-62
2022/01/19 12:08:32;;;;;;;5.87;5.17;;;;;;;6.28;34.86;96052.88;5016848;28;20214;-62
2022/01/19 12:11:10;;;;;;;10.17;6.33;;;;;;;5.44;36.04;96043.41;5013923;28;20230;-63
2022/01/19 12:16:20;;;;;;;8.53;6.20;;;;;;;6.41;34.39;96043.31;5014749;28;20233;-62
2022/01/19 12:19:10;;;;;;;13.47;6.63;;;;;;;6.69;34.16;96041.50;5018774;28;20206;-62
2022/01/19 12:22:17;;;;;;;11.53;7.07;;;;;;;6.55;34.55;96035.41;5012708;28;20229;-63
2022/01/19 12:24:54;;;;;;;16.00;9.93;;;;;;;7.02;33.66;96026.13;5010101;28;20207;-61
2022/01/19 12:27:19;;;;;;;8.53;5.87;;;;;;;7.14;33.21;96021.00;5018460;28;20237;-62
2022/01/19 12:30:01;;;;;;;9.40;6.30;;;;;;;7.58;32.64;96017.03;5013595;28;20218;-63
2022/01/19 12:32:27;;;;;;;19.17;14.33;;;;;;;7.78;32.41;96019.09;5014543;28;20226;-61
2022/01/19 12:34:57;;;;;;;9.60;6.37;;;;;;;7.50;32.91;96007.13;5003897;28;20223;-65
2022/01/19 12:37:34;;;;;;;11.53;6.97;;;;;;;7.08;33.43;96009.16;4995675;28;20227;-63
2022/01/19 12:40:06;;;;;;;10.03;7.17;;;;;;;7.38;33.46;96002.75;4994679;28;20258;-62
2022/01/19 12:42:54;;;;;;;9.87;6.50;;;;;;;7.56;32.84;96003.22;4998392;28;20250;-63
2022/01/19 12:45:25;;;;;;;9.33;6.17;;;;;;;8.00;32.27;95997.41;4994072;28;20290;-61
2022/01/19 12:48:12;;;;;;;9.23;6.47;;;;;;;7.85;32.55;95986.25;5011619;28;20231;-62
2022/01/19 12:50:48;;;;;;;12.27;6.60;;;;;;;8.00;32.02;95988.72;5017639;28;20264;-61
2022/01/19 12:53:20;;;;;;;11.30;6.40;;;;;;;8.34;31.44;95995.78;5016676;28;20256;-62
2022/01/19 12:55:51;;;;;;;12.90;7.20;;;;;;;8.24;31.57;95978.22;5014620;28;20245;-64
2022/01/19 12:58:30;;;;;;;10.87;6.23;;;;;;;8.45;31.37;95979.28;5014097;28;20227;-63
2022/01/19 13:00:59;;;;;;;12.07;7.70;;;;;;;8.45;31.40;95966.16;5017337;28;20276;-62
2022/01/19 13:03:30;;;;;;;22.70;14.63;;;;;;;8.29;31.32;95969.06;5013965;28;20216;-60
2022/01/19 13:06:01;;;;;;;11.77;6.63;;;;;;;8.42;31.27;95962.94;5013209;28;20226;-61
2022/01/19 13:08:31;;;;;;;17.13;9.47;;;;;;;8.90;31.03;95962.75;5014449;28;20207;-63
2022/01/19 13:11:06;;;;;;;8.10;6.40;;;;;;;9.02;30.51;95953.97;5017336;28;20229;-62
2022/01/19 13:13:49;;;;;;;12.53;6.50;;;;;;;10.12;28.42;95958.25;5013907;28;20215;-63
2022/01/19 13:16:25;;;;;;;15.17;7.47;;;;;;;12.19;25.38;95950.19;5017495;28;20226;-63